BAF9FL EBAW-EBFS
Flight info
| Callsign | BAF9FL |
|---|---|
| Flight time | N/A |
| Altitude | 14000 |
| Route | GILOM |
| Aircraft | SU95/M-SDE3GILORVW/S |
Departure
| Time | 2026-04-28 12:03 |
|---|---|
| Airport | Antwerp International Airport (Deurne) (EBAW) |
Arrival
| Time | N/A |
|---|---|
| Airport | Florennes Air Base (EBFS) |
| Time | Latitude | Longitude | Altitude | Speed | Heading |
|---|---|---|---|---|---|
| 2026-04-28 11:48 | 51.18919 | 4.45320 | 36 ft | 0 kts | 328° |
| 2026-04-28 11:59 | 51.18948 | 4.45310 | 36 ft | 7 kts | 41° |
| 2026-04-28 12:00 | 51.18953 | 4.45377 | 36 ft | 6 kts | 91° |
| 2026-04-28 12:00 | 51.18969 | 4.45434 | 36 ft | 8 kts | 52° |
| 2026-04-28 12:00 | 51.19010 | 4.45510 | 36 ft | 10 kts | 30° |
| 2026-04-28 12:00 | 51.19074 | 4.45463 | 36 ft | 12 kts | 324° |
| 2026-04-28 12:01 | 51.19096 | 4.45435 | 36 ft | 0 kts | 321° |
| 2026-04-28 12:02 | 51.19138 | 4.45381 | 36 ft | 21 kts | 322° |
| 2026-04-28 12:02 | 51.19211 | 4.45359 | 39 ft | 11 kts | 98° |
| 2026-04-28 12:02 | 51.19143 | 4.45670 | 39 ft | 70 kts | 110° |
| 2026-04-28 12:03 | 51.18894 | 4.46760 | 171 ft | 123 kts | 109° |
| 2026-04-28 12:03 | 51.18559 | 4.48197 | 564 ft | 157 kts | 105° |
| 2026-04-28 12:03 | 51.18139 | 4.49880 | 1475 ft | 162 kts | 105° |
| 2026-04-28 12:03 | 51.17754 | 4.51682 | 2384 ft | 183 kts | 101° |
| 2026-04-28 12:04 | 51.17411 | 4.53703 | 3485 ft | 192 kts | 101° |
| 2026-04-28 12:04 | 51.17080 | 4.55818 | 4695 ft | 205 kts | 103° |
| 2026-04-28 12:04 | 51.16646 | 4.58333 | 4701 ft | 266 kts | 103° |
| 2026-04-28 12:04 | 51.16255 | 4.61296 | 5373 ft | 219 kts | 99° |
| 2026-04-28 12:05 | 51.16015 | 4.63187 | 8557 ft | 165 kts | 97° |
| 2026-04-28 12:05 | 51.15721 | 4.65276 | 8784 ft | 216 kts | 105° |
| 2026-04-28 12:05 | 51.15255 | 4.67823 | 9007 ft | 251 kts | 106° |
| 2026-04-28 12:05 | 51.14900 | 4.69792 | 10896 ft | 184 kts | 106° |
| 2026-04-28 12:06 | 51.14501 | 4.72122 | 10552 ft | 249 kts | 107° |
| 2026-04-28 12:06 | 51.13969 | 4.74968 | 10686 ft | 286 kts | 106° |
| 2026-04-28 12:06 | 51.13315 | 4.78095 | 11119 ft | 309 kts | 121° |
| 2026-04-28 12:06 | 51.11540 | 4.80343 | 10909 ft | 351 kts | 154° |
| 2026-04-28 12:07 | 51.09165 | 4.81369 | 11495 ft | 365 kts | 167° |
| 2026-04-28 12:07 | 51.06647 | 4.82106 | 12319 ft | 365 kts | 167° |
| 2026-04-28 12:07 | 51.04125 | 4.82730 | 13255 ft | 370 kts | 172° |
| 2026-04-28 12:07 | 51.01483 | 4.82677 | 13456 ft | 387 kts | 184° |
| 2026-04-28 12:08 | 50.98792 | 4.82224 | 14028 ft | 389 kts | 186° |
| 2026-04-28 12:08 | 50.96037 | 4.81632 | 13303 ft | 415 kts | 185° |
| 2026-04-28 12:08 | 50.94840 | 4.81070 | 16020 ft | 155 kts | 339° |
| 2026-04-28 12:08 | 50.95132 | 4.80481 | 12138 ft | 62 kts | 299° |
| 2026-04-28 12:09 | 50.95087 | 4.80097 | 6626 ft | 33 kts | 348° |
| 2026-04-28 12:09 | 50.95110 | 4.79839 | 1602 ft | 22 kts | 263° |
| 2026-04-28 12:09 | 50.95088 | 4.79748 | 108 ft | 0 kts | 46° |